createdAt,value
2023-05-23T00:00:07.526Z,6.28
2023-05-23T00:02:35.754Z,7.53
2023-05-23T00:04:59.424Z,6.65
2023-05-23T00:07:22.985Z,5.70
2023-05-23T00:09:46.581Z,9.40
2023-05-23T00:12:12.423Z,8.48
2023-05-23T00:14:36.046Z,6.40
2023-05-23T00:16:59.651Z,8.00
2023-05-23T00:19:23.274Z,8.88
2023-05-23T00:21:49.577Z,10.65
2023-05-23T00:24:13.147Z,7.78
2023-05-23T00:26:37.251Z,5.95
2023-05-23T00:29:02.526Z,7.53
2023-05-23T00:31:26.276Z,5.70
2023-05-23T00:33:49.892Z,7.85
2023-05-23T00:36:13.583Z,8.13
2023-05-23T00:38:37.186Z,8.25
2023-05-23T00:41:00.804Z,7.65
2023-05-23T00:43:24.536Z,7.72
2023-05-23T00:45:50.207Z,5.90
2023-05-23T00:48:13.982Z,6.57
2023-05-23T00:50:37.598Z,8.80
2023-05-23T00:53:02.842Z,7.43
2023-05-23T00:55:26.862Z,9.48
2023-05-23T00:57:50.827Z,7.82
2023-05-23T01:00:16.210Z,6.97
2023-05-23T01:02:45.786Z,10.43
2023-05-23T01:05:11.319Z,8.77
2023-05-23T01:07:34.906Z,6.80
2023-05-23T01:09:58.517Z,9.35
2023-05-23T01:12:31.124Z,7.50
2023-05-23T01:15:03.142Z,5.93
2023-05-23T01:17:36.182Z,7.13
2023-05-23T01:20:09.952Z,11.05
2023-05-23T01:23:03.982Z,8.45
2023-05-23T01:25:42.536Z,5.60
2023-05-23T01:28:12.300Z,6.68
2023-05-23T01:30:41.882Z,6.72
2023-05-23T01:33:07.184Z,7.65
2023-05-23T01:35:31.856Z,11.02
2023-05-23T01:37:55.974Z,9.77
2023-05-23T01:40:20.649Z,7.00
2023-05-23T01:42:44.323Z,7.18
2023-05-23T01:45:11.633Z,6.65
2023-05-23T01:47:36.982Z,6.72
2023-05-23T01:50:01.848Z,5.55
2023-05-23T01:52:26.250Z,8.32
2023-05-23T01:54:50.462Z,9.70
2023-05-23T01:57:15.641Z,7.63
2023-05-23T01:59:39.691Z,10.80
2023-05-23T02:02:04.839Z,6.88
2023-05-23T02:04:30.076Z,7.82
2023-05-23T02:06:55.357Z,8.85
2023-05-23T02:09:18.905Z,6.97
2023-05-23T02:11:42.603Z,12.18
2023-05-23T02:14:06.271Z,11.43
2023-05-23T02:16:29.951Z,10.80
2023-05-23T02:18:56.397Z,8.95
2023-05-23T02:21:20.137Z,5.93
2023-05-23T02:23:43.720Z,7.65
2023-05-23T02:26:07.429Z,7.70
2023-05-23T02:28:31.023Z,7.30
2023-05-23T02:30:54.767Z,6.50
2023-05-23T02:33:18.420Z,7.75
2023-05-23T02:35:43.841Z,6.70
2023-05-23T02:38:07.421Z,7.90
2023-05-23T02:40:31.043Z,12.43
2023-05-23T02:42:57.269Z,7.68
2023-05-23T02:45:21.280Z,8.60
2023-05-23T02:47:45.197Z,6.55
2023-05-23T02:50:10.101Z,8.68
2023-05-23T02:52:35.607Z,8.07
2023-05-23T02:54:59.400Z,7.45
2023-05-23T02:57:23.771Z,6.80
2023-05-23T02:59:47.514Z,8.77
2023-05-23T03:02:11.297Z,8.75
2023-05-23T03:04:34.946Z,6.50
2023-05-23T03:06:59.657Z,9.45
2023-05-23T03:09:24.695Z,8.20
2023-05-23T03:11:48.940Z,7.88
2023-05-23T03:14:13.249Z,9.30
2023-05-23T03:16:36.834Z,13.40
2023-05-23T03:19:00.799Z,8.57
2023-05-23T03:21:24.465Z,8.57
2023-05-23T03:23:48.072Z,7.38
2023-05-23T03:26:13.082Z,7.18
2023-05-23T03:28:36.857Z,9.63
2023-05-23T03:31:00.444Z,7.43
2023-05-23T03:33:24.735Z,7.53
2023-05-23T03:35:48.303Z,12.32
2023-05-23T03:38:12.053Z,10.27
2023-05-23T03:40:35.719Z,10.55
2023-05-23T03:43:07.886Z,9.65
2023-05-23T03:45:34.898Z,8.80
2023-05-23T03:48:02.157Z,8.95
2023-05-23T03:50:27.129Z,8.63
2023-05-23T03:52:50.689Z,8.70
2023-05-23T03:55:14.386Z,7.85
2023-05-23T03:57:37.911Z,9.30
2023-05-23T04:00:06.176Z,12.43
2023-05-23T04:02:40.815Z,8.52
2023-05-23T04:05:05.051Z,7.32
2023-05-23T04:07:28.802Z,9.32
2023-05-23T04:09:52.703Z,8.50
2023-05-23T04:12:16.455Z,9.55
2023-05-23T04:14:40.185Z,9.50
2023-05-23T04:17:05.850Z,9.18
2023-05-23T04:19:29.507Z,8.50
2023-05-23T04:21:53.132Z,10.65
2023-05-23T04:24:16.813Z,8.65
2023-05-23T04:26:40.398Z,8.13
2023-05-23T04:29:04.454Z,7.85
2023-05-23T04:31:28.754Z,10.80
2023-05-23T04:33:53.842Z,9.45
2023-05-23T04:36:18.268Z,10.93
2023-05-23T04:38:46.815Z,8.13
2023-05-23T04:41:11.467Z,8.98
2023-05-23T04:43:58.525Z,9.55
2023-05-23T04:46:29.384Z,9.85
2023-05-23T04:49:23.979Z,12.73
2023-05-23T04:51:48.029Z,8.55
2023-05-23T04:54:22.209Z,9.90
2023-05-23T04:56:46.270Z,7.70
2023-05-23T04:59:11.462Z,10.07
2023-05-23T05:01:41.470Z,7.18
2023-05-23T05:04:06.869Z,8.05
2023-05-23T05:06:35.025Z,8.77
2023-05-23T05:08:58.933Z,8.45
2023-05-23T05:11:22.546Z,10.75
2023-05-23T05:13:46.217Z,7.75
2023-05-23T05:16:12.095Z,8.20
2023-05-23T05:18:37.540Z,10.23
2023-05-23T05:21:01.625Z,15.45
2023-05-23T05:23:30.324Z,13.07
2023-05-23T05:25:54.883Z,10.40
2023-05-23T05:28:18.559Z,10.65
2023-05-23T05:30:48.459Z,15.65
2023-05-23T05:33:12.165Z,9.45
2023-05-23T05:35:38.403Z,10.77
2023-05-23T05:38:04.823Z,10.23
2023-05-23T05:40:29.993Z,13.63
2023-05-23T05:42:54.137Z,9.68
2023-05-23T05:45:19.288Z,9.18
2023-05-23T05:47:46.439Z,9.68
2023-05-23T05:50:11.358Z,9.93
2023-05-23T05:52:38.506Z,9.05
2023-05-23T05:55:02.566Z,11.52
2023-05-23T05:57:27.579Z,8.32
2023-05-23T05:59:52.490Z,11.00
2023-05-23T06:02:16.119Z,9.57
2023-05-23T06:04:39.833Z,10.45
2023-05-23T06:07:03.497Z,10.93
2023-05-23T06:09:27.116Z,14.98
2023-05-23T06:11:50.782Z,13.20
2023-05-23T06:14:15.819Z,11.68
2023-05-23T06:16:42.703Z,9.05
2023-05-23T06:19:06.468Z,10.13
2023-05-23T06:21:30.241Z,13.82
2023-05-23T06:23:54.028Z,11.25
2023-05-23T06:26:17.668Z,17.08
2023-05-23T06:28:41.371Z,14.73
2023-05-23T06:31:06.414Z,10.95
2023-05-23T06:33:31.532Z,13.40
2023-05-23T06:35:55.152Z,15.65
2023-05-23T06:38:18.733Z,8.70
2023-05-23T06:40:42.586Z,17.30
2023-05-23T06:43:06.816Z,12.02
2023-05-23T06:45:38.321Z,10.85
2023-05-23T06:48:03.439Z,11.40
2023-05-23T06:50:28.666Z,9.32
2023-05-23T06:52:52.485Z,14.13
2023-05-23T06:55:19.338Z,14.00
2023-05-23T06:57:45.115Z,24.00
2023-05-23T07:00:10.428Z,14.75
2023-05-23T07:02:42.417Z,12.25
2023-05-23T07:05:10.400Z,13.52
2023-05-23T07:07:44.318Z,12.75
2023-05-23T07:10:10.165Z,11.73
2023-05-23T07:12:34.889Z,12.98
2023-05-23T07:14:58.865Z,14.20
2023-05-23T07:17:23.718Z,15.40
2023-05-23T07:19:47.534Z,10.90
2023-05-23T07:22:12.539Z,12.95
2023-05-23T07:24:38.592Z,18.58
2023-05-23T07:27:03.102Z,11.27
2023-05-23T07:29:26.925Z,12.13
2023-05-23T07:31:51.195Z,13.20
2023-05-23T07:34:14.841Z,15.80
2023-05-23T07:36:47.677Z,16.20
2023-05-23T07:39:14.736Z,10.68
2023-05-23T07:41:38.516Z,13.88
2023-05-23T07:44:02.174Z,12.43
2023-05-23T07:46:26.166Z,15.05
2023-05-23T07:48:50.097Z,12.23
2023-05-23T07:51:13.904Z,13.70
2023-05-23T07:53:40.099Z,11.07
2023-05-23T07:56:08.831Z,19.58
2023-05-23T07:58:36.118Z,9.70
2023-05-23T08:00:59.868Z,16.25
2023-05-23T08:04:01.828Z,11.70
2023-05-23T08:06:29.735Z,9.45
2023-05-23T08:08:56.437Z,9.20
2023-05-23T08:11:22.397Z,12.95
2023-05-23T08:13:48.201Z,13.00
2023-05-23T08:16:44.300Z,9.50
2023-05-23T08:19:16.344Z,9.23
2023-05-23T08:21:41.394Z,11.43
2023-05-23T08:24:05.482Z,9.40
2023-05-23T08:26:34.838Z,8.93
2023-05-23T08:29:00.101Z,8.82
2023-05-23T08:31:23.914Z,10.63
2023-05-23T08:33:47.691Z,11.95
2023-05-23T08:36:11.380Z,11.85
2023-05-23T08:38:35.528Z,7.65
2023-05-23T08:41:14.821Z,9.88
2023-05-23T08:43:40.126Z,12.52
2023-05-23T08:46:06.420Z,8.57
2023-05-23T08:48:30.986Z,8.52
2023-05-23T08:50:55.000Z,11.60
2023-05-23T08:53:22.707Z,12.88
2023-05-23T08:55:56.463Z,9.90
2023-05-23T08:58:29.156Z,13.52
2023-05-23T09:00:56.263Z,8.13
2023-05-23T09:03:21.211Z,9.85
2023-05-23T09:05:58.125Z,9.43
2023-05-23T09:08:22.097Z,10.18
2023-05-23T09:10:47.722Z,11.52
2023-05-23T09:13:11.719Z,15.05
2023-05-23T09:15:36.829Z,8.77
2023-05-23T09:18:03.459Z,9.02
2023-05-23T09:20:30.177Z,10.57
2023-05-23T09:22:58.342Z,8.30
2023-05-23T09:25:22.102Z,15.20
2023-05-23T09:27:48.021Z,9.10
2023-05-23T09:30:14.512Z,7.90
2023-05-23T09:32:38.309Z,11.15
2023-05-23T09:35:06.248Z,11.93
2023-05-23T09:37:34.280Z,10.45
2023-05-23T09:40:00.548Z,10.32
2023-05-23T09:42:24.834Z,8.88
2023-05-23T09:44:48.433Z,7.97
2023-05-23T09:47:12.183Z,11.20
2023-05-23T09:49:35.782Z,10.18
2023-05-23T09:52:01.346Z,9.68
2023-05-23T09:54:25.073Z,8.70
2023-05-23T09:56:51.690Z,10.63
2023-05-23T09:59:20.520Z,7.55
2023-05-23T10:01:50.353Z,11.00
2023-05-23T10:04:16.904Z,9.82
2023-05-23T10:06:48.148Z,7.93
2023-05-23T10:09:18.851Z,10.45
2023-05-23T10:12:37.597Z,7.53
2023-05-23T10:15:05.538Z,8.75
2023-05-23T10:17:41.164Z,8.52
2023-05-23T10:20:10.435Z,10.60
2023-05-23T10:22:34.357Z,9.13
2023-05-23T10:24:59.367Z,10.55
2023-05-23T10:27:23.285Z,8.45
2023-05-23T10:29:47.148Z,9.55
2023-05-23T10:32:11.883Z,9.63
2023-05-23T10:34:45.644Z,11.68
2023-05-23T10:37:12.579Z,10.98
2023-05-23T10:40:06.014Z,12.07
2023-05-23T10:42:45.242Z,9.60
2023-05-23T10:45:22.978Z,10.55
2023-05-23T10:47:48.928Z,9.95
2023-05-23T10:50:15.382Z,10.00
2023-05-23T10:52:42.540Z,10.13
2023-05-23T10:55:15.422Z,12.43
2023-05-23T10:57:42.027Z,11.63
2023-05-23T11:00:07.045Z,11.75
2023-05-23T11:02:31.457Z,11.43
2023-05-23T11:05:23.859Z,10.45
2023-05-23T11:07:47.801Z,15.30
2023-05-23T11:10:14.171Z,11.35
2023-05-23T11:12:44.034Z,18.00
2023-05-23T11:15:22.088Z,11.38
2023-05-23T11:17:54.373Z,10.15
2023-05-23T11:20:23.319Z,14.60
2023-05-23T11:22:56.218Z,16.85
2023-05-23T11:25:20.406Z,16.33
2023-05-23T11:27:48.278Z,17.75
2023-05-23T11:30:14.642Z,19.00
2023-05-23T11:32:38.891Z,20.50
2023-05-23T11:35:03.763Z,22.15
2023-05-23T11:37:27.695Z,17.20
2023-05-23T11:39:51.736Z,18.85
2023-05-23T11:42:15.313Z,19.77
2023-05-23T11:44:40.329Z,18.48
2023-05-23T11:47:06.849Z,17.38
2023-05-23T11:49:31.916Z,16.45
2023-05-23T11:51:55.512Z,17.30
2023-05-23T11:54:19.282Z,17.88
2023-05-23T11:56:43.032Z,21.77
2023-05-23T11:59:06.665Z,18.83
2023-05-23T12:01:33.341Z,20.50
2023-05-23T12:03:57.592Z,19.98
2023-05-23T12:06:21.890Z,24.75
2023-05-23T12:08:45.999Z,21.08
2023-05-23T12:11:09.718Z,23.20
2023-05-23T12:13:33.577Z,19.80
2023-05-23T12:15:58.709Z,23.73
2023-05-23T12:18:24.336Z,22.83
2023-05-23T12:20:51.541Z,22.95
2023-05-23T12:23:20.899Z,25.23
2023-05-23T12:25:44.601Z,24.23
2023-05-23T12:28:08.253Z,26.60
2023-05-23T12:30:43.508Z,24.77
2023-05-23T12:33:10.315Z,22.23
2023-05-23T12:35:35.538Z,22.92
2023-05-23T12:37:59.175Z,24.23
2023-05-23T12:40:23.527Z,22.73
2023-05-23T12:42:57.788Z,20.85
2023-05-23T12:45:22.149Z,23.80
2023-05-23T12:47:45.995Z,21.90
2023-05-23T12:50:11.417Z,23.80
2023-05-23T12:52:37.328Z,20.65
2023-05-23T12:55:01.088Z,23.55
2023-05-23T12:57:24.634Z,21.20
2023-05-23T12:59:48.286Z,22.25
2023-05-23T13:02:12.663Z,21.48
2023-05-23T13:04:36.255Z,21.80
2023-05-23T13:06:59.851Z,24.67
2023-05-23T13:09:25.055Z,25.50
2023-05-23T13:11:48.765Z,25.60
2023-05-23T13:14:13.709Z,24.75
2023-05-23T13:16:37.404Z,25.52
2023-05-23T13:19:01.141Z,28.08
2023-05-23T13:21:24.722Z,24.25
2023-05-23T13:23:48.381Z,27.02
2023-05-23T13:26:14.581Z,29.65
2023-05-23T13:28:38.222Z,27.27
2023-05-23T13:31:03.567Z,26.50
2023-05-23T13:33:27.351Z,27.58
2023-05-23T13:35:51.198Z,30.08
2023-05-23T13:38:14.837Z,31.02
2023-05-23T13:40:38.424Z,29.15
2023-05-23T13:43:03.830Z,31.30
2023-05-23T13:45:27.540Z,29.63
2023-05-23T13:47:51.247Z,30.73
2023-05-23T13:50:15.031Z,31.35
2023-05-23T13:52:39.821Z,32.10
2023-05-23T13:55:06.932Z,30.45
2023-05-23T13:57:30.631Z,32.72
2023-05-23T13:59:55.562Z,31.30
2023-05-23T14:02:19.214Z,28.98
2023-05-23T14:04:42.733Z,28.15
2023-05-23T14:07:06.534Z,28.63
2023-05-23T14:09:30.120Z,27.05
2023-05-23T14:11:53.848Z,27.17
2023-05-23T14:14:17.508Z,26.48
2023-05-23T14:16:42.664Z,26.52
2023-05-23T14:19:06.334Z,24.77
2023-05-23T14:21:30.034Z,23.92
2023-05-23T14:23:53.586Z,23.00
2023-05-23T14:26:17.484Z,23.05
2023-05-23T14:28:41.197Z,20.20
2023-05-23T14:31:04.888Z,25.23
2023-05-23T14:33:29.839Z,20.08
2023-05-23T14:35:53.844Z,22.55
2023-05-23T14:38:17.431Z,23.05
2023-05-23T14:40:41.179Z,18.65
2023-05-23T14:43:05.153Z,16.20
2023-05-23T14:45:28.809Z,15.35
2023-05-23T14:47:52.743Z,11.70
2023-05-23T14:50:19.526Z,20.35
2023-05-23T14:52:43.201Z,15.13
2023-05-23T14:55:08.360Z,15.15
2023-05-23T14:57:31.900Z,13.43
2023-05-23T14:59:56.008Z,12.82
2023-05-23T15:02:20.044Z,12.38
2023-05-23T15:04:43.632Z,13.45
2023-05-23T15:07:08.870Z,12.20
2023-05-23T15:09:32.568Z,10.45
2023-05-23T15:11:56.292Z,10.68
2023-05-23T15:14:19.907Z,11.80
2023-05-23T15:16:44.644Z,10.55
2023-05-23T15:19:08.424Z,12.40
2023-05-23T15:21:32.316Z,13.60
2023-05-23T15:23:57.809Z,9.13
2023-05-23T15:26:22.183Z,14.85
2023-05-23T15:28:45.763Z,12.70
2023-05-23T15:31:09.387Z,12.98
2023-05-23T15:33:33.547Z,11.35
2023-05-23T15:35:58.870Z,10.55
2023-05-23T15:38:22.522Z,17.25
2023-05-23T15:40:48.928Z,10.50
2023-05-23T15:43:12.671Z,12.35
2023-05-23T15:45:36.275Z,13.13
2023-05-23T15:47:59.939Z,11.93
2023-05-23T15:50:23.600Z,12.40
2023-05-23T15:52:47.303Z,15.68
2023-05-23T15:55:11.476Z,14.45
2023-05-23T15:57:36.474Z,12.25
2023-05-23T16:00:00.289Z,12.88
2023-05-23T16:02:24.101Z,14.27
2023-05-23T16:04:48.056Z,17.00
2023-05-23T16:07:12.125Z,11.43
2023-05-23T16:09:35.661Z,11.15
2023-05-23T16:11:59.767Z,13.10
2023-05-23T16:14:24.958Z,16.88
2023-05-23T16:16:48.663Z,11.82
2023-05-23T16:19:12.384Z,13.70
2023-05-23T16:21:36.643Z,11.10
2023-05-23T16:24:00.691Z,12.93
2023-05-23T16:26:24.321Z,14.57
2023-05-23T16:28:47.914Z,12.25
2023-05-23T16:31:16.806Z,10.93
2023-05-23T16:33:40.638Z,13.30
2023-05-23T16:36:04.433Z,11.60
2023-05-23T16:38:27.984Z,7.03
2023-05-23T16:40:51.562Z,7.97
2023-05-23T16:43:15.143Z,11.00
2023-05-23T16:45:41.053Z,10.57
2023-05-23T16:48:06.915Z,8.68
2023-05-23T16:50:30.657Z,6.20
2023-05-23T16:52:55.312Z,6.32
2023-05-23T16:55:18.904Z,6.10
2023-05-23T16:57:42.528Z,5.72
2023-05-23T17:00:07.635Z,7.82
2023-05-23T17:02:31.327Z,7.50
2023-05-23T17:04:56.885Z,5.57
2023-05-23T17:07:20.754Z,5.32
2023-05-23T17:09:44.382Z,7.65
2023-05-23T17:12:08.423Z,4.72
2023-05-23T17:14:32.164Z,4.28
2023-05-23T17:16:55.792Z,4.75
2023-05-23T17:19:19.486Z,5.90
2023-05-23T17:21:44.439Z,6.38
2023-05-23T17:24:08.193Z,3.55
2023-05-23T17:26:31.879Z,4.72
2023-05-23T17:28:55.775Z,4.40
2023-05-23T17:31:19.604Z,3.35
2023-05-23T17:33:43.926Z,9.88
2023-05-23T17:36:07.930Z,9.85
2023-05-23T17:38:34.192Z,9.25
2023-05-23T17:40:57.813Z,9.82
2023-05-23T17:43:21.471Z,8.88
2023-05-23T17:45:45.039Z,7.43
2023-05-23T17:48:08.845Z,9.32
2023-05-23T17:50:32.407Z,9.77
2023-05-23T17:52:56.926Z,7.38
2023-05-23T17:55:22.274Z,6.70
2023-05-23T17:57:45.873Z,7.47
2023-05-23T18:00:11.526Z,9.85
2023-05-23T18:02:37.961Z,8.93
2023-05-23T18:05:02.103Z,8.77
2023-05-23T18:07:25.920Z,8.00
2023-05-23T18:09:49.579Z,9.68
2023-05-23T18:12:14.781Z,9.95
2023-05-23T18:14:40.056Z,11.15
2023-05-23T18:17:03.745Z,12.73
2023-05-23T18:19:27.405Z,12.00
2023-05-23T18:21:51.016Z,11.13
2023-05-23T18:24:14.620Z,9.93
2023-05-23T18:26:42.253Z,12.25
2023-05-23T18:29:07.213Z,11.23
2023-05-23T18:31:30.824Z,10.70
2023-05-23T18:33:54.942Z,10.63
2023-05-23T18:36:18.724Z,11.48
2023-05-23T18:38:42.461Z,10.13
2023-05-23T18:41:06.262Z,8.80
2023-05-23T18:43:30.512Z,8.90
2023-05-23T18:45:55.702Z,9.02
2023-05-23T18:48:19.259Z,14.75
2023-05-23T18:50:43.253Z,10.20
2023-05-23T18:53:07.471Z,13.23
2023-05-23T18:55:31.062Z,12.07
2023-05-23T18:57:54.846Z,9.63
2023-05-23T19:00:18.971Z,9.75
2023-05-23T19:02:45.701Z,10.20
2023-05-23T19:05:10.162Z,11.95
2023-05-23T19:07:33.769Z,10.73
2023-05-23T19:09:57.384Z,15.35
2023-05-23T19:12:21.040Z,13.13
2023-05-23T19:14:44.685Z,11.15
2023-05-23T19:17:08.275Z,11.98
2023-05-23T19:19:35.129Z,15.77
2023-05-23T19:21:58.746Z,10.32
2023-05-23T19:24:22.345Z,11.73
2023-05-23T19:26:45.963Z,8.88
2023-05-23T19:29:10.903Z,12.85
2023-05-23T19:31:35.458Z,14.13
2023-05-23T19:33:59.085Z,11.02
2023-05-23T19:36:24.199Z,8.93
2023-05-23T19:38:47.785Z,15.57
2023-05-23T19:41:12.210Z,15.10
2023-05-23T19:43:35.855Z,12.20
2023-05-23T19:45:59.465Z,11.07
2023-05-23T19:48:23.088Z,14.75
2023-05-23T19:50:47.619Z,14.00
2023-05-23T19:53:12.647Z,12.45
2023-05-23T19:55:36.622Z,10.65
2023-05-23T19:58:00.522Z,15.45
2023-05-23T20:00:24.186Z,13.95
2023-05-23T20:02:48.007Z,10.50
2023-05-23T20:05:11.958Z,14.02
2023-05-23T20:07:36.433Z,10.60
2023-05-23T20:10:01.516Z,8.50
2023-05-23T20:12:25.269Z,11.00
2023-05-23T20:14:48.936Z,22.08
2023-05-23T20:17:12.785Z,12.00
2023-05-23T20:19:36.409Z,12.85
2023-05-23T20:22:00.284Z,19.73
2023-05-23T20:24:23.844Z,14.18
2023-05-23T20:26:49.114Z,14.70
2023-05-23T20:29:12.657Z,12.15
2023-05-23T20:31:36.404Z,16.30
2023-05-23T20:34:00.163Z,14.43
2023-05-23T20:36:23.853Z,15.05
2023-05-23T20:38:47.804Z,15.68
2023-05-23T20:41:14.173Z,14.02
2023-05-23T20:43:39.702Z,12.98
2023-05-23T20:46:05.596Z,16.67
2023-05-23T20:48:29.537Z,16.80
2023-05-23T20:50:53.122Z,13.65
2023-05-23T20:53:16.756Z,17.50
2023-05-23T20:55:40.639Z,18.15
2023-05-23T20:58:04.477Z,14.85
2023-05-23T21:00:29.481Z,13.80
2023-05-23T21:02:53.242Z,17.45
2023-05-23T21:05:16.971Z,17.90
2023-05-23T21:07:40.814Z,14.25
2023-05-23T21:10:05.463Z,19.67
2023-05-23T21:12:29.133Z,20.00
2023-05-23T21:14:52.868Z,19.48
2023-05-23T21:17:19.691Z,13.38
2023-05-23T21:19:43.502Z,15.73
2023-05-23T21:22:07.045Z,14.77
2023-05-23T21:24:30.812Z,17.27
2023-05-23T21:26:54.358Z,14.00
2023-05-23T21:29:17.993Z,21.00
2023-05-23T21:31:42.190Z,10.43
2023-05-23T21:34:21.751Z,15.38
2023-05-23T21:36:46.583Z,12.90
2023-05-23T21:39:10.406Z,13.48
2023-05-23T21:41:34.000Z,17.17
2023-05-23T21:43:58.111Z,12.23
2023-05-23T21:46:21.763Z,14.27
2023-05-23T21:48:45.331Z,15.73
2023-05-23T21:51:10.336Z,12.73
2023-05-23T21:53:33.871Z,14.65
2023-05-23T21:55:57.460Z,18.35
2023-05-23T21:58:21.057Z,16.10
2023-05-23T22:00:45.683Z,14.52
2023-05-23T22:03:09.338Z,13.77
2023-05-23T22:05:33.017Z,18.70
2023-05-23T22:07:58.018Z,19.95
2023-05-23T22:10:21.606Z,12.45
2023-05-23T22:12:45.604Z,15.57
2023-05-23T22:15:10.884Z,18.90
2023-05-23T22:17:34.721Z,17.33
2023-05-23T22:19:58.715Z,13.18
2023-05-23T22:22:22.247Z,16.95
2023-05-23T22:24:47.391Z,22.85
2023-05-23T22:27:11.266Z,19.05
2023-05-23T22:29:34.893Z,13.68
2023-05-23T22:31:58.538Z,15.75
2023-05-23T22:34:22.267Z,11.48
2023-05-23T22:36:46.109Z,12.82
2023-05-23T22:39:09.764Z,19.02
2023-05-23T22:41:35.896Z,13.65
2023-05-23T22:43:59.636Z,19.45
2023-05-23T22:46:23.302Z,19.20
2023-05-23T22:48:47.028Z,15.73
2023-05-23T22:51:12.515Z,15.45
2023-05-23T22:53:36.139Z,14.00
2023-05-23T22:55:59.706Z,15.35
2023-05-23T22:58:24.813Z,16.45
2023-05-23T23:00:48.623Z,17.95
2023-05-23T23:03:12.920Z,16.70
2023-05-23T23:05:36.602Z,16.60
2023-05-23T23:08:00.222Z,12.70
2023-05-23T23:10:23.878Z,20.05
2023-05-23T23:12:47.504Z,17.13
2023-05-23T23:15:13.030Z,13.98
2023-05-23T23:17:37.164Z,13.68
2023-05-23T23:20:00.743Z,12.93
2023-05-23T23:22:24.377Z,14.30
2023-05-23T23:24:48.672Z,14.90
2023-05-23T23:27:12.293Z,12.05
2023-05-23T23:29:35.825Z,74.95
2023-05-23T23:32:00.881Z,22.02
2023-05-23T23:34:24.438Z,19.08
2023-05-23T23:36:48.020Z,29.45
2023-05-23T23:39:11.888Z,15.07
2023-05-23T23:41:35.538Z,13.88
2023-05-23T23:43:59.093Z,26.70
2023-05-23T23:46:22.767Z,15.63
2023-05-23T23:48:47.707Z,8.25
2023-05-23T23:51:12.899Z,10.63
2023-05-23T23:53:36.657Z,3.10
2023-05-23T23:56:00.504Z,10.30
2023-05-23T23:58:24.058Z,4.18
